Time;durP1;ratioP1;P1;durP2;ratioP2;P2;SDS_P1;SDS_P2;PMS_P1;PMS_P2;Temp;Humidity;BMP_temperature;BMP_pressure;BME280_temperature;BME280_humidity;BME280_pressure;Samples;Min_cycle;Max_cycle;Signal;HPM_P1;HPM_P2
2023/11/17 00:00:43;;;;;;;3.57;3.27;;;6.10;1.00;;;;;;6157328;23;20237;-56
2023/11/17 00:03:09;;;;;;;2.60;2.40;;;6.00;1.00;;;;;;6157074;23;20547;-54
2023/11/17 00:05:35;;;;;;;3.17;2.90;;;6.00;1.00;;;;;;6157757;23;20585;-54
2023/11/17 00:08:02;;;;;;;3.00;2.80;;;6.00;1.00;;;;;;6156805;23;20143;-58
2023/11/17 00:10:28;;;;;;;3.87;2.40;;;6.00;1.00;;;;;;6157385;23;20398;-57
2023/11/17 00:12:54;;;;;;;2.07;1.87;;;5.90;1.00;;;;;;6157287;23;20379;-55
2023/11/17 00:15:20;;;;;;;2.50;2.30;;;5.90;1.00;;;;;;6154838;23;20162;-56
2023/11/17 00:17:45;;;;;;;2.70;2.30;;;5.90;1.00;;;;;;6155285;23;20170;-57
2023/11/17 00:20:11;;;;;;;2.33;2.13;;;5.90;1.00;;;;;;6155857;23;20163;-57
2023/11/17 00:22:37;;;;;;;2.30;1.97;;;5.90;1.00;;;;;;6155851;23;20562;-56
2023/11/17 00:25:04;;;;;;;1.43;1.33;;;5.90;1.00;;;;;;6154477;23;20462;-56
2023/11/17 00:27:30;;;;;;;1.60;1.43;;;5.80;1.00;;;;;;6155622;23;20566;-56
2023/11/17 00:29:56;;;;;;;1.60;1.30;;;5.80;1.00;;;;;;6154801;23;20355;-55
2023/11/17 00:32:22;;;;;;;1.20;1.00;;;5.70;1.00;;;;;;6154375;23;20242;-56
2023/11/17 00:34:48;;;;;;;1.13;0.77;;;5.70;1.00;;;;;;6155835;23;20524;-57
2023/11/17 00:37:16;;;;;;;1.40;0.90;;;5.70;1.00;;;;;;6156447;23;20482;-55
2023/11/17 00:39:41;;;;;;;1.30;0.90;;;5.70;99.90;;;;;;6156326;23;20749;-55
2023/11/17 00:42:08;;;;;;;1.53;0.93;;;5.60;99.90;;;;;;6156564;23;20386;-54
2023/11/17 00:44:33;;;;;;;1.43;0.90;;;5.50;99.90;;;;;;6157414;23;20231;-55
2023/11/17 00:46:59;;;;;;;1.20;0.70;;;5.50;99.90;;;;;;6157060;23;20465;-52
2023/11/17 00:49:25;;;;;;;1.90;1.23;;;5.50;1.00;;;;;;6157375;23;20195;-56
2023/11/17 00:51:52;;;;;;;2.00;1.10;;;5.50;1.00;;;;;;6156593;23;20510;-56
2023/11/17 00:54:25;;;;;;;1.83;1.60;;;5.50;1.00;;;;;;6156566;23;20367;-55
2023/11/17 00:56:54;;;;;;;1.67;1.10;;;5.50;1.00;;;;;;6157053;23;20428;-54
2023/11/17 00:59:21;;;;;;;1.30;1.00;;;5.50;1.00;;;;;;6157087;23;20390;-54
2023/11/17 01:01:47;;;;;;;1.50;1.23;;;5.50;1.00;;;;;;6156613;23;20810;-55
2023/11/17 01:04:14;;;;;;;1.10;0.90;;;5.50;1.00;;;;;;6156595;23;20426;-55
2023/11/17 01:06:40;;;;;;;1.30;0.97;;;5.50;1.00;;;;;;6157257;23;20386;-56
2023/11/17 01:09:05;;;;;;;1.20;0.90;;;5.50;1.00;;;;;;6155759;23;20351;-55
2023/11/17 01:11:31;;;;;;;2.20;0.90;;;5.50;1.00;;;;;;6130493;23;20165;-55
2023/11/17 01:13:57;;;;;;;1.20;0.87;;;5.40;1.00;;;;;;6157347;23;20235;-54
2023/11/17 01:16:22;;;;;;;1.77;0.80;;;5.40;99.90;;;;;;6157213;23;20167;-53
2023/11/17 01:18:48;;;;;;;1.00;0.80;;;5.40;99.90;;;;;;6157405;23;20151;-54
2023/11/17 01:21:14;;;;;;;3.10;1.07;;;5.30;1.00;;;;;;6131166;23;20152;-56
2023/11/17 01:23:40;;;;;;;1.30;0.87;;;5.30;1.00;;;;;;6157282;23;20179;-55
2023/11/17 01:26:05;;;;;;;1.10;0.70;;;5.30;1.00;;;;;;6156737;23;20147;-56
2023/11/17 01:28:31;;;;;;;2.03;1.10;;;5.30;1.00;;;;;;6157507;23;20422;-55
2023/11/17 01:30:57;;;;;;;1.30;1.10;;;5.30;1.00;;;;;;6157597;23;20496;-56
2023/11/17 01:33:22;;;;;;;2.00;1.20;;;5.30;1.00;;;;;;6156001;23;20523;-53
2023/11/17 01:35:49;;;;;;;2.00;1.60;;;5.30;1.00;;;;;;6156540;23;20481;-54
2023/11/17 01:38:15;;;;;;;2.03;1.63;;;5.30;1.00;;;;;;6157786;23;20171;-56
2023/11/17 01:40:41;;;;;;;1.80;1.53;;;5.30;1.00;;;;;;6158222;23;20383;-54
2023/11/17 01:43:11;;;;;;;1.90;1.60;;;5.30;1.00;;;;;;6157537;23;20205;-56
2023/11/17 01:45:37;;;;;;;1.57;1.40;;;5.30;1.00;;;;;;6157093;23;20190;-56
2023/11/17 01:48:03;;;;;;;2.30;1.90;;;5.30;1.00;;;;;;6157343;23;20421;-56
2023/11/17 01:50:29;;;;;;;2.57;1.90;;;5.30;1.00;;;;;;6132088;23;20454;-56
2023/11/17 01:52:55;;;;;;;1.63;1.50;;;5.40;1.00;;;;;;6158931;23;20388;-56
2023/11/17 01:55:22;;;;;;;2.13;1.90;;;5.30;1.00;;;;;;6158792;23;20257;-53
2023/11/17 01:57:48;;;;;;;2.47;2.20;;;5.30;1.00;;;;;;6133227;23;20389;-54
2023/11/17 02:00:14;;;;;;;2.47;2.27;;;5.40;1.00;;;;;;6159052;23;20399;-53
2023/11/17 02:02:47;;;;;;;5.07;2.60;;;5.40;1.00;;;;;;6158977;23;20167;-53
2023/11/17 02:05:14;;;;;;;3.27;2.37;;;5.40;1.00;;;;;;6159266;23;20509;-53
2023/11/17 02:08:20;;;;;;;3.10;2.20;;;5.40;1.00;;;;;;6132507;23;20441;-56
2023/11/17 02:11:03;;;;;;;1.70;1.60;;;5.40;1.00;;;;;;6109440;23;20818;-55
2023/11/17 02:13:55;;;;;;;4.27;3.10;;;5.40;1.00;;;;;;6159065;23;20463;-52
2023/11/17 02:16:24;;;;;;;2.90;2.17;;;5.40;1.00;;;;;;6082020;23;20402;-55
2023/11/17 02:18:54;;;;;;;2.80;2.30;;;5.40;1.00;;;;;;6158960;23;20798;-55
2023/11/17 02:21:22;;;;;;;2.17;1.97;;;5.30;1.00;;;;;;6133419;23;20433;-53
2023/11/17 02:23:51;;;;;;;3.07;2.10;;;5.30;1.00;;;;;;6157878;23;20514;-54
2023/11/17 02:26:35;;;;;;;3.93;2.57;;;5.30;1.00;;;;;;6133877;23;20632;-56
2023/11/17 02:29:15;;;;;;;4.10;3.70;;;5.30;1.00;;;;;;6132916;23;20397;-56
2023/11/17 02:31:43;;;;;;;2.83;2.07;;;5.30;1.00;;;;;;6158578;23;20465;-56
2023/11/17 02:34:09;;;;;;;5.23;2.63;;;5.30;1.00;;;;;;6158338;23;20489;-57
2023/11/17 02:36:38;;;;;;;4.10;2.27;;;5.30;1.00;;;;;;6132652;23;20147;-58
2023/11/17 02:39:12;;;;;;;5.00;2.60;;;5.30;1.00;;;;;;6157834;23;20410;-55
2023/11/17 02:41:42;;;;;;;2.83;2.60;;;5.30;1.00;;;;;;6158708;23;20371;-54
2023/11/17 02:44:12;;;;;;;2.43;2.17;;;5.30;1.00;;;;;;6132508;23;20843;-53
2023/11/17 02:46:44;;;;;;;3.20;2.67;;;5.30;1.00;;;;;;6158443;23;20391;-54
2023/11/17 02:49:28;;;;;;;2.47;2.17;;;5.30;1.00;;;;;;6158327;23;20426;-56
2023/11/17 02:51:55;;;;;;;3.03;2.50;;;5.30;1.00;;;;;;6158570;23;20517;-55
2023/11/17 02:54:24;;;;;;;5.17;2.37;;;5.30;1.00;;;;;;6158767;23;20360;-54
2023/11/17 02:56:50;;;;;;;2.03;1.83;;;5.30;1.00;;;;;;6158779;23;20781;-56
2023/11/17 02:59:19;;;;;;;4.77;2.20;;;5.30;1.00;;;;;;6158567;23;20473;-56
2023/11/17 03:01:45;;;;;;;3.83;2.00;;;5.30;1.00;;;;;;6157708;23;20394;-56
2023/11/17 03:04:15;;;;;;;2.83;2.50;;;5.30;1.00;;;;;;6158244;23;20620;-53
2023/11/17 03:06:48;;;;;;;2.70;2.20;;;5.30;1.00;;;;;;6158117;23;20799;-53
2023/11/17 03:09:22;;;;;;;2.80;1.90;;;5.30;1.00;;;;;;6158547;23;20740;-53
2023/11/17 03:11:54;;;;;;;3.70;2.93;;;5.30;1.00;;;;;;6158428;23;20360;-57
2023/11/17 03:14:24;;;;;;;2.00;1.80;;;5.30;1.00;;;;;;6157905;23;20387;-53
2023/11/17 03:16:59;;;;;;;3.37;2.30;;;5.20;1.00;;;;;;6157707;23;20393;-56
2023/11/17 03:19:26;;;;;;;3.50;1.83;;;5.20;1.00;;;;;;6158346;23;20417;-55
2023/11/17 03:21:54;;;;;;;2.77;1.90;;;5.20;1.00;;;;;;6131505;23;20394;-55
2023/11/17 03:24:23;;;;;;;4.47;2.17;;;5.20;1.00;;;;;;6156701;23;20497;-58
2023/11/17 03:26:54;;;;;;;4.17;1.90;;;5.10;1.00;;;;;;6157226;23;20410;-55
2023/11/17 03:29:21;;;;;;;4.20;1.93;;;5.10;1.00;;;;;;6156912;23;20393;-56
2023/11/17 03:31:49;;;;;;;1.47;1.37;;;5.10;1.00;;;;;;6157930;23;20478;-55
2023/11/17 03:34:23;;;;;;;3.30;1.53;;;5.10;1.00;;;;;;6156826;23;20418;-53
2023/11/17 03:36:56;;;;;;;4.13;1.80;;;5.10;1.00;;;;;;6157448;23;20484;-53
2023/11/17 03:39:30;;;;;;;2.80;1.80;;;5.10;1.00;;;;;;6158177;23;20389;-53
2023/11/17 03:41:56;;;;;;;1.90;1.40;;;5.10;1.00;;;;;;6158774;23;20371;-52
2023/11/17 03:44:27;;;;;;;2.87;2.07;;;5.00;1.00;;;;;;6159011;23;20521;-55
2023/11/17 03:46:58;;;;;;;2.70;1.83;;;5.00;1.00;;;;;;6158813;23;20782;-53
2023/11/17 03:49:25;;;;;;;2.07;1.87;;;5.00;1.00;;;;;;6158242;23;20433;-53
2023/11/17 03:51:52;;;;;;;3.40;1.43;;;5.00;1.00;;;;;;6158642;23;20624;-56
2023/11/17 03:54:21;;;;;;;1.97;1.60;;;4.90;1.00;;;;;;6157411;23;20402;-52
2023/11/17 03:56:56;;;;;;;2.30;1.90;;;4.90;1.00;;;;;;6158049;23;20387;-56
2023/11/17 03:59:23;;;;;;;2.80;1.80;;;4.90;1.00;;;;;;6159003;23;20386;-55
2023/11/17 04:01:49;;;;;;;3.50;1.80;;;4.90;1.00;;;;;;6131993;23;20445;-53
2023/11/17 04:04:17;;;;;;;2.80;1.47;;;4.90;1.00;;;;;;6158620;23;20432;-55
2023/11/17 04:06:45;;;;;;;2.37;1.77;;;4.90;1.00;;;;;;6158164;23;20532;-56
2023/11/17 04:09:15;;;;;;;2.53;1.87;;;4.90;1.00;;;;;;6157252;23;20397;-54
2023/11/17 04:11:42;;;;;;;3.07;1.57;;;4.80;1.00;;;;;;6130947;23;20449;-53
2023/11/17 04:14:08;;;;;;;3.37;2.40;;;4.80;1.00;;;;;;6158287;23;20391;-53
2023/11/17 04:16:34;;;;;;;1.60;1.20;;;4.80;1.00;;;;;;6158639;23;20698;-55
2023/11/17 04:19:00;;;;;;;1.40;1.30;;;4.80;1.00;;;;;;6158179;23;20162;-56
2023/11/17 04:21:26;;;;;;;3.03;2.73;;;4.80;1.00;;;;;;6157917;23;20433;-54
2023/11/17 04:23:52;;;;;;;1.83;1.67;;;4.80;1.00;;;;;;6157527;23;20783;-55
2023/11/17 04:26:19;;;;;;;1.80;1.57;;;4.70;1.00;;;;;;6157299;23;20385;-56
2023/11/17 04:28:46;;;;;;;3.53;2.67;;;4.70;1.00;;;;;;6156298;23;20395;-56
2023/11/17 04:31:12;;;;;;;1.70;1.50;;;4.70;1.00;;;;;;6156818;23;20486;-53
2023/11/17 04:33:38;;;;;;;2.50;1.57;;;4.70;1.00;;;;;;6156686;23;20735;-56
2023/11/17 04:36:04;;;;;;;2.07;1.50;;;4.70;1.00;;;;;;6154768;23;20744;-57
2023/11/17 04:38:30;;;;;;;2.87;1.57;;;4.70;1.00;;;;;;6156098;23;20483;-56
2023/11/17 04:40:57;;;;;;;1.43;1.30;;;4.70;1.00;;;;;;6156521;23;20382;-57
2023/11/17 04:43:22;;;;;;;1.90;1.50;;;4.70;1.00;;;;;;6155843;23;20704;-54
2023/11/17 04:45:49;;;;;;;2.90;2.37;;;4.70;1.00;;;;;;6156318;23;20399;-56
2023/11/17 04:48:16;;;;;;;2.47;1.60;;;4.70;1.00;;;;;;6132959;23;20238;-56
2023/11/17 04:50:42;;;;;;;1.60;1.50;;;4.70;1.00;;;;;;6155264;23;20372;-54
2023/11/17 04:53:08;;;;;;;1.70;1.30;;;4.60;1.00;;;;;;6155260;23;20383;-56
2023/11/17 04:55:34;;;;;;;2.37;1.90;;;4.60;1.00;;;;;;6156877;23;20390;-55
2023/11/17 04:58:00;;;;;;;5.60;1.70;;;5.00;1.00;;;;;;6156232;23;20374;-54
2023/11/17 05:00:27;;;;;;;2.40;2.00;;;5.80;1.00;;;;;;6156672;23;20155;-55
2023/11/17 05:02:53;;;;;;;1.80;1.40;;;6.10;1.00;;;;;;6155552;23;20374;-54
2023/11/17 05:05:22;;;;;;;1.83;1.40;;;5.70;1.00;;;;;;6156543;23;20422;-53
2023/11/17 05:07:48;;;;;;;1.83;1.20;;;5.50;1.00;;;;;;6157721;23;20379;-57
2023/11/17 05:10:15;;;;;;;2.00;1.20;;;5.20;1.00;;;;;;6156868;23;20886;-55
2023/11/17 05:12:41;;;;;;;2.10;1.23;;;5.00;1.00;;;;;;6157398;23;20151;-53
2023/11/17 05:15:07;;;;;;;1.53;1.23;;;5.00;1.00;;;;;;6157284;23;20683;-57
2023/11/17 05:17:43;;;;;;;2.90;1.37;;;5.00;1.00;;;;;;6157869;23;20367;-53
2023/11/17 05:20:14;;;;;;;1.53;1.10;;;4.90;1.00;;;;;;6157403;23;20382;-57
2023/11/17 05:22:40;;;;;;;1.67;1.10;;;4.80;1.00;;;;;;6156891;23;20394;-53
2023/11/17 05:25:07;;;;;;;1.47;1.33;;;4.80;1.00;;;;;;6159096;23;20433;-57
2023/11/17 05:27:36;;;;;;;1.50;1.40;;;4.80;1.00;;;;;;6157195;23;20371;-55
2023/11/17 05:30:12;;;;;;;11.30;10.27;;;4.70;1.00;;;;;;6158964;23;20379;-56
2023/11/17 05:32:40;;;;;;;11.30;10.40;;;4.70;1.00;;;;;;6157325;23;20383;-54
2023/11/17 05:35:09;;;;;;;2.73;2.30;;;4.70;1.00;;;;;;6158402;23;20379;-52
2023/11/17 05:37:35;;;;;;;4.53;4.07;;;4.70;1.00;;;;;;6159125;23;20386;-55
2023/11/17 05:40:01;;;;;;;2.80;2.60;;;4.70;1.00;;;;;;6156961;23;20374;-57
2023/11/17 05:42:28;;;;;;;2.77;2.27;;;4.70;1.00;;;;;;6156705;23;20382;-57
2023/11/17 05:44:54;;;;;;;1.97;1.67;;;4.70;1.00;;;;;;6157145;23;20461;-54
2023/11/17 05:47:21;;;;;;;1.30;1.20;;;4.70;1.00;;;;;;6155861;23;20482;-54
2023/11/17 05:49:47;;;;;;;1.50;1.20;;;4.60;1.00;;;;;;6154936;23;20426;-56
2023/11/17 05:52:14;;;;;;;1.57;1.47;;;4.70;1.00;;;;;;6156010;23;20379;-56
2023/11/17 05:54:46;;;;;;;1.67;1.57;;;4.70;1.00;;;;;;6155342;23;20490;-55
2023/11/17 05:57:16;;;;;;;2.90;1.40;;;4.70;1.00;;;;;;6155142;23;20359;-54
2023/11/17 05:59:44;;;;;;;2.00;1.50;;;4.70;1.00;;;;;;6155856;23;20372;-56
2023/11/17 06:02:10;;;;;;;2.83;1.70;;;4.70;1.00;;;;;;6156506;23;20391;-56
2023/11/17 06:04:37;;;;;;;2.13;1.33;;;4.60;1.00;;;;;;6156228;23;20735;-55
2023/11/17 06:07:04;;;;;;;3.67;1.90;;;4.70;1.00;;;;;;6155306;23;20382;-53
2023/11/17 06:09:30;;;;;;;1.40;1.30;;;4.70;1.00;;;;;;6154969;23;20383;-56
2023/11/17 06:11:56;;;;;;;1.50;1.30;;;4.80;1.00;;;;;;6153531;23;20363;-55
2023/11/17 06:14:27;;;;;;;3.40;1.80;;;4.80;1.00;;;;;;6153056;23;20378;-57
2023/11/17 06:16:54;;;;;;;1.83;1.50;;;4.80;1.00;;;;;;6154134;23;20389;-54
2023/11/17 06:19:21;;;;;;;1.80;1.50;;;4.80;1.00;;;;;;6153269;23;20402;-58
2023/11/17 06:21:47;;;;;;;2.07;1.20;;;4.80;1.00;;;;;;6154853;23;20382;-57
2023/11/17 06:24:16;;;;;;;2.03;1.50;;;4.90;1.00;;;;;;6155193;23;20414;-57
2023/11/17 06:26:49;;;;;;;1.90;1.67;;;4.90;1.00;;;;;;6155489;23;20202;-56
2023/11/17 06:29:16;;;;;;;2.60;2.10;;;5.00;1.00;;;;;;6154716;23;20375;-57
2023/11/17 06:31:43;;;;;;;2.17;1.97;;;5.00;1.00;;;;;;6154530;23;20453;-59
2023/11/17 06:34:12;;;;;;;2.60;1.60;;;5.00;1.00;;;;;;6129552;23;20414;-59
2023/11/17 06:36:44;;;;;;;2.40;2.00;;;5.00;1.00;;;;;;6155461;23;20482;-56
2023/11/17 06:39:18;;;;;;;3.97;1.90;;;5.00;99.90;;;;;;6154670;23;20911;-56
2023/11/17 06:41:48;;;;;;;2.20;1.50;;;5.00;1.00;;;;;;6152405;23;20766;-58
2023/11/17 06:44:18;;;;;;;4.87;3.27;;;5.00;99.90;;;;;;6150574;23;20528;-58
2023/11/17 06:46:47;;;;;;;3.00;1.93;;;5.00;99.90;;;;;;6155120;23;20829;-57
2023/11/17 06:49:16;;;;;;;5.13;1.50;;;5.00;99.90;;;;;;6155750;23;20585;-56
2023/11/17 06:51:43;;;;;;;4.43;2.97;;;4.90;99.90;;;;;;6153534;23;20386;-57
2023/11/17 06:54:11;;;;;;;3.40;2.30;;;5.00;99.90;;;;;;6154758;23;20371;-57
2023/11/17 06:56:43;;;;;;;1.80;1.70;;;5.00;99.90;;;;;;6154919;23;20367;-57
2023/11/17 06:59:19;;;;;;;1.90;1.30;;;5.00;99.90;;;;;;6155758;23;20720;-58
2023/11/17 07:01:48;;;;;;;1.40;1.30;;;5.00;99.90;;;;;;6156244;23;20386;-57
2023/11/17 07:04:14;;;;;;;1.70;1.50;;;5.00;99.90;;;;;;6128155;23;20434;-58
2023/11/17 07:06:40;;;;;;;2.20;1.40;;;5.00;99.90;;;;;;6152727;23;20706;-54
2023/11/17 07:09:16;;;;;;;2.93;1.53;;;5.00;99.90;;;;;;6152948;23;20396;-56
2023/11/17 07:11:51;;;;;;;2.53;1.30;;;5.00;99.90;;;;;;6154637;23;20470;-55
2023/11/17 07:14:22;;;;;;;1.77;1.57;;;5.10;99.90;;;;;;6154559;23;20829;-57
2023/11/17 07:16:49;;;;;;;2.50;2.00;;;5.00;99.90;;;;;;6153959;23;20743;-57
2023/11/17 07:19:16;;;;;;;4.80;1.93;;;5.10;99.90;;;;;;6154023;23;20489;-56
2023/11/17 07:21:42;;;;;;;2.23;1.53;;;5.00;99.90;;;;;;6154143;23;20402;-57
2023/11/17 07:24:10;;;;;;;2.33;1.43;;;5.00;99.90;;;;;;6154282;23;20702;-57
2023/11/17 07:26:39;;;;;;;2.60;1.63;;;5.00;99.90;;;;;;6154475;23;20366;-56
2023/11/17 07:29:05;;;;;;;3.10;1.40;;;5.10;99.90;;;;;;6154958;23;20389;-58
2023/11/17 07:31:40;;;;;;;2.23;1.63;;;5.10;99.90;;;;;;6155330;23;20393;-53
2023/11/17 07:34:07;;;;;;;2.43;1.77;;;5.10;99.90;;;;;;6153907;23;20403;-58
2023/11/17 07:36:37;;;;;;;2.57;1.77;;;5.20;99.90;;;;;;6154443;23;20386;-56
2023/11/17 07:39:06;;;;;;;2.90;1.90;;;5.30;99.90;;;;;;6154872;23;20363;-56
2023/11/17 07:41:33;;;;;;;2.23;1.70;;;5.30;99.90;;;;;;6128612;23;20462;-57
2023/11/17 07:44:01;;;;;;;2.13;1.67;;;5.30;99.90;;;;;;6155105;23;20454;-56
2023/11/17 07:46:30;;;;;;;2.57;1.50;;;5.40;99.90;;;;;;6155511;23;20382;-57
2023/11/17 07:48:56;;;;;;;2.10;1.53;;;5.40;99.90;;;;;;6154510;23;20517;-57
2023/11/17 07:51:22;;;;;;;2.93;2.20;;;5.40;99.90;;;;;;6156288;23;20366;-57
2023/11/17 07:53:48;;;;;;;2.17;1.57;;;5.50;99.90;;;;;;6155946;23;20625;-53
2023/11/17 07:56:14;;;;;;;4.37;1.60;;;5.50;99.90;;;;;;6155770;23;20390;-53
2023/11/17 07:58:41;;;;;;;2.87;2.10;;;5.50;99.90;;;;;;6156906;23;20398;-57
2023/11/17 08:01:08;;;;;;;2.43;1.70;;;5.60;99.90;;;;;;6156413;23;20406;-53
2023/11/17 08:03:39;;;;;;;2.30;1.80;;;5.60;99.90;;;;;;6154240;23;20406;-54
2023/11/17 08:06:06;;;;;;;2.43;2.03;;;5.60;99.90;;;;;;6155426;23;20450;-56
2023/11/17 08:08:32;;;;;;;2.27;1.87;;;5.50;99.90;;;;;;6156240;23;20398;-57
2023/11/17 08:11:02;;;;;;;1.70;1.33;;;5.60;99.90;;;;;;6129613;23;20666;-58
2023/11/17 08:13:27;;;;;;;2.30;1.90;;;5.60;99.90;;;;;;6155147;23;20678;-55
2023/11/17 08:15:54;;;;;;;15.93;10.77;;;5.60;99.90;;;;;;6154814;23;20387;-57
2023/11/17 08:18:21;;;;;;;2.87;2.20;;;5.60;99.90;;;;;;6130766;23;20151;-57
2023/11/17 08:20:48;;;;;;;2.10;1.90;;;5.60;99.90;;;;;;6156237;23;20727;-57
2023/11/17 08:23:15;;;;;;;2.47;2.03;;;5.60;99.90;;;;;;6131502;23;20911;-57
2023/11/17 08:25:43;;;;;;;2.60;2.07;;;5.60;99.90;;;;;;6156483;23;20865;-57
2023/11/17 08:28:10;;;;;;;1.73;1.63;;;5.70;99.90;;;;;;6155460;23;20798;-57
2023/11/17 08:30:37;;;;;;;2.30;2.07;;;5.70;99.90;;;;;;6154975;23;20387;-57
2023/11/17 08:33:03;;;;;;;2.70;2.03;;;5.70;99.90;;;;;;6155837;23;20128;-57
2023/11/17 08:35:31;;;;;;;2.17;1.97;;;5.80;99.90;;;;;;6130215;23;20776;-58
2023/11/17 08:37:57;;;;;;;2.23;2.03;;;5.70;99.90;;;;;;6156181;23;20383;-58
2023/11/17 08:40:23;;;;;;;1.70;1.30;;;5.70;99.90;;;;;;6156621;23;20769;-57
2023/11/17 08:42:49;;;;;;;2.30;1.73;;;5.70;99.90;;;;;;6153508;23;20402;-56
2023/11/17 08:45:15;;;;;;;2.90;1.80;;;5.70;99.90;;;;;;6154542;23;20407;-57
2023/11/17 08:47:45;;;;;;;2.90;1.90;;;5.70;99.90;;;;;;6155445;23;20355;-56
2023/11/17 08:50:12;;;;;;;3.23;1.90;;;5.80;99.90;;;;;;6153809;23;20485;-57
2023/11/17 08:52:42;;;;;;;2.83;1.90;;;5.70;99.90;;;;;;6154018;23;20437;-58
2023/11/17 08:55:09;;;;;;;3.80;2.20;;;5.70;99.90;;;;;;6153221;23;20820;-57
2023/11/17 08:57:41;;;;;;;3.00;2.40;;;5.80;99.90;;;;;;6153921;23;20387;-56
2023/11/17 09:00:11;;;;;;;3.07;2.30;;;5.80;99.90;;;;;;6154770;23;20646;-57
2023/11/17 09:02:41;;;;;;;4.07;2.67;;;5.90;99.90;;;;;;6129367;23;20360;-57
2023/11/17 09:05:09;;;;;;;3.43;2.23;;;6.00;99.90;;;;;;6157661;23;20426;-57
2023/11/17 09:07:46;;;;;;;5.30;3.30;;;6.20;99.90;;;;;;6156974;23;20703;-57
2023/11/17 09:10:14;;;;;;;5.30;3.47;;;6.40;30.00;;;;;;6158463;23;20386;-58
2023/11/17 09:12:43;;;;;;;4.20;2.90;;;6.50;1.00;;;;;;6157741;23;20378;-56
2023/11/17 09:15:12;;;;;;;5.93;3.20;;;6.60;1.00;;;;;;6158240;23;20355;-57
2023/11/17 09:17:40;;;;;;;4.27;2.57;;;6.80;99.90;;;;;;6158587;23;20379;-56
2023/11/17 09:20:13;;;;;;;4.80;3.20;;;6.90;99.90;;;;;;6159478;23;20387;-57
2023/11/17 09:22:39;;;;;;;2.00;1.80;;;7.00;99.90;;;;;;6156853;23;20382;-58
2023/11/17 09:25:15;;;;;;;3.10;2.03;;;7.00;99.90;;;;;;6130572;23;20430;-54
2023/11/17 09:27:41;;;;;;;2.17;1.67;;;6.90;22.60;;;;;;6157555;23;20603;-58
2023/11/17 09:30:12;;;;;;;1.57;1.47;;;6.90;1.00;;;;;;6157705;23;20652;-57
2023/11/17 09:32:48;;;;;;;1.13;1.03;;;7.00;99.90;;;;;;6157786;23;20351;-59
2023/11/17 09:35:18;;;;;;;1.20;1.07;;;7.00;99.90;;;;;;6157353;23;20498;-56
2023/11/17 09:37:53;;;;;;;1.57;1.33;;;6.90;99.90;;;;;;6129630;23;20963;-57
2023/11/17 09:40:26;;;;;;;1.97;1.30;;;6.70;1.00;;;;;;6155265;23;20386;-55
2023/11/17 09:42:53;;;;;;;1.60;1.40;;;6.70;99.90;;;;;;6156624;23;20397;-56
2023/11/17 09:45:21;;;;;;;1.33;1.23;;;6.80;19.90;;;;;;6131374;23;20547;-58
2023/11/17 09:47:50;;;;;;;1.50;1.40;;;6.80;1.00;;;;;;6155804;23;20438;-58
2023/11/17 09:50:18;;;;;;;1.43;1.17;;;6.70;99.90;;;;;;6131515;23;20434;-57
2023/11/17 09:52:47;;;;;;;2.63;1.27;;;6.80;99.90;;;;;;6157122;23;20392;-55
2023/11/17 09:55:14;;;;;;;2.60;1.30;;;6.90;1.00;;;;;;6157791;23;20457;-54
2023/11/17 09:57:42;;;;;;;1.30;0.90;;;6.90;1.00;;;;;;6130529;23;20367;-57
2023/11/17 10:00:17;;;;;;;1.20;0.90;;;6.80;15.70;;;;;;6155824;23;20387;-55
2023/11/17 10:02:51;;;;;;;1.20;1.00;;;6.70;99.90;;;;;;6108599;23;20430;-56
2023/11/17 10:05:19;;;;;;;3.30;1.07;;;6.60;99.90;;;;;;6157740;23;20432;-56
2023/11/17 10:07:47;;;;;;;1.63;1.10;;;6.50;99.90;;;;;;6131882;23;20434;-57
2023/11/17 10:10:14;;;;;;;1.23;1.00;;;6.50;99.90;;;;;;6155076;23;20408;-56
2023/11/17 10:12:43;;;;;;;1.70;1.20;;;6.50;1.00;;;;;;6130857;23;20362;-56
2023/11/17 10:15:12;;;;;;;1.40;1.20;;;6.60;99.90;;;;;;6156964;23;20387;-55
2023/11/17 10:17:40;;;;;;;2.47;1.10;;;6.60;1.00;;;;;;6130712;23;20445;-56
2023/11/17 10:20:17;;;;;;;1.40;1.20;;;6.60;99.90;;;;;;6107660;23;20418;-55
2023/11/17 10:22:50;;;;;;;1.83;1.37;;;6.50;99.90;;;;;;6158634;23;20607;-56
2023/11/17 10:25:18;;;;;;;1.60;1.30;;;6.50;1.00;;;;;;6106386;23;20419;-55
2023/11/17 10:27:49;;;;;;;1.70;1.50;;;6.50;1.00;;;;;;6157778;23;20446;-55
2023/11/17 10:30:16;;;;;;;1.83;1.20;;;6.60;1.00;;;;;;6156948;23;20379;-56
2023/11/17 10:32:47;;;;;;;1.20;1.00;;;6.70;1.00;;;;;;6156898;23;20383;-56
2023/11/17 10:35:35;;;;;;;1.57;1.20;;;6.90;99.90;;;;;;6129864;23;20379;-55
2023/11/17 10:38:00;;;;;;;1.60;1.13;;;6.80;99.90;;;;;;6155793;23;20774;-56
2023/11/17 10:40:28;;;;;;;1.20;0.90;;;6.70;99.90;;;;;;6129542;23;20386;-54
2023/11/17 10:43:11;;;;;;;1.40;1.30;;;6.70;99.90;;;;;;6153841;23;20774;-55
2023/11/17 10:45:41;;;;;;;1.50;1.30;;;6.70;99.90;;;;;;6129097;23;20434;-55
2023/11/17 10:48:12;;;;;;;2.47;1.30;;;6.70;1.00;;;;;;6130683;23;20838;-58
2023/11/17 10:50:38;;;;;;;2.10;1.80;;;6.60;1.00;;;;;;6155172;23;20684;-59
2023/11/17 10:53:14;;;;;;;1.37;1.10;;;6.60;1.00;;;;;;6155946;23;20429;-57
2023/11/17 10:55:42;;;;;;;1.80;1.20;;;6.60;1.00;;;;;;6154989;23;20398;-57
2023/11/17 10:58:08;;;;;;;2.13;1.13;;;6.60;1.00;;;;;;6129092;23;20394;-58
2023/11/17 11:00:38;;;;;;;1.30;1.20;;;6.70;1.00;;;;;;6153580;23;20375;-58
2023/11/17 11:03:12;;;;;;;1.73;0.97;;;6.70;1.00;;;;;;6152907;23;20387;-58
2023/11/17 11:05:39;;;;;;;2.17;1.27;;;6.60;1.00;;;;;;6156302;23;20433;-58
2023/11/17 11:08:18;;;;;;;1.50;1.20;;;6.50;1.00;;;;;;6153936;23;20379;-52
2023/11/17 11:10:56;;;;;;;1.77;1.30;;;6.50;1.00;;;;;;6129761;23;20394;-54
2023/11/17 11:13:28;;;;;;;1.87;1.17;;;6.40;1.00;;;;;;6154936;23;20413;-55
2023/11/17 11:16:05;;;;;;;3.23;1.10;;;6.40;1.00;;;;;;6155883;23;20467;-57
2023/11/17 11:18:37;;;;;;;1.90;1.57;;;6.50;1.00;;;;;;6155772;23;20379;-58
2023/11/17 11:21:05;;;;;;;1.40;1.03;;;6.60;1.00;;;;;;6155301;23;20568;-58
2023/11/17 11:23:34;;;;;;;1.33;1.23;;;6.60;1.00;;;;;;6153619;23;20451;-58
2023/11/17 11:26:05;;;;;;;1.70;1.40;;;6.60;1.00;;;;;;6154608;23;20437;-57
2023/11/17 11:28:31;;;;;;;2.97;1.83;;;6.60;1.00;;;;;;6155599;23;20526;-57
2023/11/17 11:30:59;;;;;;;2.77;1.80;;;6.60;1.00;;;;;;6154427;23;20347;-60
2023/11/17 11:33:28;;;;;;;1.70;1.10;;;6.70;1.00;;;;;;6154947;23;20578;-59
2023/11/17 11:35:54;;;;;;;1.33;1.00;;;6.70;99.90;;;;;;6153606;23;20950;-58
2023/11/17 11:38:21;;;;;;;1.63;1.10;;;6.70;51.80;;;;;;6152756;23;20656;-56
2023/11/17 11:40:48;;;;;;;3.13;2.23;;;6.70;99.90;;;;;;6154352;23;20426;-57
2023/11/17 11:43:15;;;;;;;2.30;1.87;;;6.70;99.90;;;;;;6154690;23;20639;-54
2023/11/17 11:45:41;;;;;;;1.43;1.20;;;6.70;99.90;;;;;;6154706;23;20538;-55
2023/11/17 11:48:08;;;;;;;2.20;1.40;;;6.70;99.90;;;;;;6153810;23;20493;-56
2023/11/17 11:50:38;;;;;;;1.57;1.40;;;6.80;99.90;;;;;;6103424;23;20743;-58
2023/11/17 11:53:12;;;;;;;1.47;1.13;;;6.90;91.30;;;;;;6128367;23;20391;-56
2023/11/17 11:55:38;;;;;;;1.40;1.30;;;6.90;99.90;;;;;;6128671;23;20843;-59
2023/11/17 11:58:05;;;;;;;1.40;0.90;;;6.90;99.90;;;;;;6153388;23;20355;-56
2023/11/17 12:00:34;;;;;;;1.10;0.60;;;6.90;1.00;;;;;;6151729;23;20359;-53
2023/11/17 12:03:05;;;;;;;1.73;1.20;;;6.80;17.20;;;;;;6103035;23;20970;-58
2023/11/17 12:05:34;;;;;;;2.53;2.00;;;6.80;99.90;;;;;;6152798;23;20446;-59
2023/11/17 12:08:03;;;;;;;2.33;1.83;;;6.90;99.90;;;;;;6128890;23;20457;-57
2023/11/17 12:10:41;;;;;;;1.80;1.30;;;6.80;99.90;;;;;;6154412;23;20383;-57
2023/11/17 12:13:07;;;;;;;1.30;1.07;;;6.90;99.90;;;;;;6152709;23;20351;-57
2023/11/17 12:15:33;;;;;;;1.53;1.30;;;6.90;99.90;;;;;;6153283;23;20440;-55
2023/11/17 12:18:05;;;;;;;2.90;1.30;;;6.90;11.30;;;;;;6150867;23;20406;-58
2023/11/17 12:20:33;;;;;;;1.57;1.00;;;7.00;99.90;;;;;;6153237;23;20182;-55
2023/11/17 12:23:01;;;;;;;2.77;1.20;;;6.90;99.90;;;;;;6148873;23;20659;-54
2023/11/17 12:25:30;;;;;;;1.73;1.40;;;6.80;95.30;;;;;;6151570;23;21043;-58
2023/11/17 12:27:58;;;;;;;1.20;0.80;;;6.90;99.90;;;;;;6150720;23;20506;-57
2023/11/17 12:30:25;;;;;;;1.57;0.77;;;6.90;99.90;;;;;;6125337;23;20804;-55
2023/11/17 12:32:54;;;;;;;1.47;1.03;;;7.00;99.90;;;;;;6151260;23;20462;-54
2023/11/17 12:35:20;;;;;;;1.17;0.80;;;7.00;1.00;;;;;;6153426;23;20390;-55
2023/11/17 12:37:48;;;;;;;1.73;1.40;;;7.00;1.00;;;;;;6152260;23;20486;-55
2023/11/17 12:40:18;;;;;;;1.77;1.00;;;7.20;1.00;;;;;;6151617;23;20421;-55
2023/11/17 12:42:45;;;;;;;1.93;1.00;;;7.20;99.90;;;;;;6151943;23;20359;-53
2023/11/17 12:45:16;;;;;;;2.27;1.27;;;7.20;99.90;;;;;;6152343;23;20481;-53
2023/11/17 12:47:46;;;;;;;1.80;1.10;;;7.40;1.00;;;;;;6152903;23;20382;-55
2023/11/17 12:50:12;;;;;;;3.40;1.03;;;7.50;99.90;;;;;;6127152;23;20391;-56
2023/11/17 12:52:54;;;;;;;2.63;1.40;;;7.30;99.90;;;;;;6153454;23;20397;-55
2023/11/17 12:55:19;;;;;;;1.47;1.20;;;7.20;1.00;;;;;;6128952;23;20155;-54
2023/11/17 12:57:46;;;;;;;2.20;1.40;;;7.00;99.90;;;;;;6154187;23;20399;-54
2023/11/17 13:00:21;;;;;;;1.27;0.80;;;7.10;2.60;;;;;;6154510;23;20156;-58
2023/11/17 13:02:48;;;;;;;0.90;0.77;;;6.90;99.90;;;;;;6153020;23;20401;-56
2023/11/17 13:05:14;;;;;;;2.53;0.93;;;6.80;99.90;;;;;;6129003;23;20860;-54
2023/11/17 13:07:44;;;;;;;1.63;1.10;;;7.30;1.00;;;;;;6155140;23;20749;-54
2023/11/17 13:10:11;;;;;;;3.03;1.30;;;7.50;99.90;;;;;;6153084;23;20351;-52